createdAt,value
2022-10-14T00:01:15.270Z,83.65
2022-10-14T00:03:44.842Z,84.61
2022-10-14T00:06:16.992Z,84.75
2022-10-14T00:08:47.800Z,84.23
2022-10-14T00:11:18.488Z,83.73
2022-10-14T00:13:47.274Z,83.59
2022-10-14T00:16:19.535Z,82.86
2022-10-14T00:18:47.970Z,82.51
2022-10-14T00:21:17.969Z,82.35
2022-10-14T00:23:47.042Z,82.22
2022-10-14T00:26:20.233Z,82.28
2022-10-14T00:28:48.754Z,82.47
2022-10-14T00:31:16.713Z,82.41
2022-10-14T00:33:48.742Z,82.39
2022-10-14T00:36:19.756Z,82.67
2022-10-14T00:38:48.619Z,83.21
2022-10-14T00:41:19.181Z,83.22
2022-10-14T00:43:56.111Z,83.04
2022-10-14T00:46:23.907Z,83.44
2022-10-14T00:48:59.926Z,83.62
2022-10-14T00:51:55.277Z,83.34
2022-10-14T00:54:26.835Z,83.65
2022-10-14T00:56:54.802Z,83.87
2022-10-14T00:59:23.530Z,83.34
2022-10-14T01:01:51.394Z,83.20
2022-10-14T01:04:19.814Z,83.12
2022-10-14T01:07:02.204Z,82.74
2022-10-14T01:09:35.135Z,82.30
2022-10-14T01:12:29.950Z,82.47
2022-10-14T01:15:05.709Z,82.99
2022-10-14T01:17:44.633Z,82.50
2022-10-14T01:20:34.171Z,82.46
2022-10-14T01:23:22.302Z,82.76
2022-10-14T01:25:58.770Z,82.71
2022-10-14T01:28:36.859Z,82.43
2022-10-14T01:31:10.904Z,82.59
2022-10-14T01:33:41.861Z,82.71
2022-10-14T01:36:16.683Z,82.38
2022-10-14T01:38:50.112Z,82.43
2022-10-14T01:41:24.022Z,82.68
2022-10-14T01:43:54.498Z,82.48
2022-10-14T01:46:27.388Z,82.47
2022-10-14T01:48:59.127Z,82.62
2022-10-14T01:51:32.095Z,82.84
2022-10-14T01:54:03.699Z,83.19
2022-10-14T01:56:37.026Z,82.87
2022-10-14T01:59:09.476Z,82.79
2022-10-14T02:01:39.964Z,82.83
2022-10-14T02:04:16.426Z,82.64
2022-10-14T02:06:51.888Z,82.50
2022-10-14T02:09:28.930Z,82.76
2022-10-14T02:12:09.905Z,83.09
2022-10-14T02:14:44.787Z,83.64
2022-10-14T02:17:21.810Z,83.89
2022-10-14T02:19:53.755Z,84.13
2022-10-14T02:22:29.152Z,84.12
2022-10-14T02:25:01.033Z,84.39
2022-10-14T02:27:30.910Z,84.08
2022-10-14T02:30:00.934Z,84.27
2022-10-14T02:32:31.699Z,84.43
2022-10-14T02:35:00.550Z,84.07
2022-10-14T02:37:31.043Z,84.37
2022-10-14T02:40:06.082Z,84.70
2022-10-14T02:42:34.510Z,84.46
2022-10-14T02:45:05.903Z,84.35
2022-10-14T02:47:34.985Z,83.72
2022-10-14T02:50:02.688Z,84.04
2022-10-14T02:52:31.113Z,84.25
2022-10-14T02:54:59.158Z,84.08
2022-10-14T02:57:27.392Z,84.08
2022-10-14T02:59:57.887Z,83.85
2022-10-14T03:02:26.286Z,83.82
2022-10-14T03:04:55.525Z,83.37
2022-10-14T03:07:24.153Z,83.71
2022-10-14T03:09:53.063Z,83.71
2022-10-14T03:12:22.093Z,83.58
2022-10-14T03:14:50.922Z,83.40
2022-10-14T03:17:22.710Z,83.96
2022-10-14T03:19:52.846Z,83.81
2022-10-14T03:22:22.889Z,83.38
2022-10-14T03:24:51.673Z,83.22
2022-10-14T03:27:44.675Z,83.12
2022-10-14T03:30:14.948Z,83.01
2022-10-14T03:32:56.886Z,82.93
2022-10-14T03:35:47.530Z,82.70
2022-10-14T03:38:21.583Z,82.63
2022-10-14T03:40:50.526Z,82.66
2022-10-14T03:43:19.062Z,82.51
2022-10-14T03:45:55.134Z,82.48
2022-10-14T03:48:25.731Z,82.67
2022-10-14T03:50:57.346Z,82.65
2022-10-14T03:53:27.776Z,82.93
2022-10-14T03:55:55.896Z,82.94
2022-10-14T03:58:24.083Z,82.92
2022-10-14T04:00:58.311Z,82.77
2022-10-14T04:03:35.673Z,82.77
2022-10-14T04:06:03.623Z,82.79
2022-10-14T04:08:33.300Z,82.75
2022-10-14T04:11:14.221Z,82.43
2022-10-14T04:13:42.103Z,82.90
2022-10-14T04:16:12.018Z,82.82
2022-10-14T04:19:16.126Z,82.73
2022-10-14T04:21:45.193Z,82.82
2022-10-14T04:24:15.041Z,82.96
2022-10-14T04:26:47.499Z,83.04
2022-10-14T04:29:23.646Z,82.99
2022-10-14T04:32:01.089Z,83.04
2022-10-14T04:34:30.058Z,82.62
2022-10-14T04:36:58.617Z,82.89
2022-10-14T04:39:43.156Z,82.74
2022-10-14T04:42:11.771Z,82.55
2022-10-14T04:44:41.793Z,82.70
2022-10-14T04:47:11.957Z,82.96
2022-10-14T04:49:40.086Z,82.98
2022-10-14T04:52:14.772Z,83.19
2022-10-14T04:54:54.770Z,83.26
2022-10-14T04:57:34.235Z,83.30
2022-10-14T05:00:02.597Z,82.64
2022-10-14T05:02:46.438Z,82.70
2022-10-14T05:05:15.871Z,82.60
2022-10-14T05:07:47.386Z,82.61
2022-10-14T05:10:45.607Z,82.80
2022-10-14T05:13:20.339Z,82.91
2022-10-14T05:15:58.290Z,82.99
2022-10-14T05:18:27.438Z,82.91
2022-10-14T05:21:00.675Z,82.86
2022-10-14T05:23:41.986Z,82.79
2022-10-14T05:26:11.078Z,82.79
2022-10-14T05:28:41.683Z,82.66
2022-10-14T05:31:10.730Z,82.81
2022-10-14T05:33:47.014Z,82.69
2022-10-14T05:36:14.765Z,82.87
2022-10-14T05:38:42.940Z,82.67
2022-10-14T05:41:12.267Z,82.76
2022-10-14T05:43:41.093Z,82.73
2022-10-14T05:46:08.819Z,82.57
2022-10-14T05:48:42.030Z,82.74
2022-10-14T05:51:10.069Z,82.78
2022-10-14T05:53:40.258Z,82.48
2022-10-14T05:56:15.908Z,82.56
2022-10-14T05:58:44.258Z,82.59
2022-10-14T06:01:12.583Z,82.60
2022-10-14T06:03:42.913Z,82.93
2022-10-14T06:06:14.065Z,83.13
2022-10-14T06:08:43.316Z,83.39
2022-10-14T06:11:11.013Z,83.04
2022-10-14T06:13:41.238Z,82.92
2022-10-14T06:16:10.853Z,82.53
2022-10-14T06:18:39.652Z,82.56
2022-10-14T06:21:08.206Z,82.56
2022-10-14T06:23:36.331Z,82.70
2022-10-14T06:26:05.997Z,82.51
2022-10-14T06:28:34.337Z,82.25
2022-10-14T06:31:03.393Z,80.94
2022-10-14T06:33:32.158Z,80.63
2022-10-14T06:36:00.164Z,80.92
2022-10-14T06:38:28.607Z,81.00
2022-10-14T06:40:56.607Z,81.17
2022-10-14T06:43:24.561Z,81.04
2022-10-14T06:45:52.721Z,80.57
2022-10-14T06:48:21.820Z,80.70
2022-10-14T06:50:49.507Z,80.77
2022-10-14T06:53:17.727Z,80.67
2022-10-14T06:55:45.469Z,80.59
2022-10-14T06:58:13.813Z,80.29
2022-10-14T07:00:45.692Z,79.74
2022-10-14T07:03:16.391Z,79.66
2022-10-14T07:05:45.704Z,79.40
2022-10-14T07:08:15.524Z,79.57
2022-10-14T07:10:43.787Z,77.58
2022-10-14T07:13:12.283Z,76.68
2022-10-14T07:15:40.127Z,75.49
2022-10-14T07:18:08.552Z,75.69
2022-10-14T07:20:36.293Z,75.74
2022-10-14T07:23:05.707Z,74.94
2022-10-14T07:25:33.887Z,74.95
2022-10-14T07:28:02.033Z,73.91
2022-10-14T07:30:29.850Z,74.17
2022-10-14T07:32:58.173Z,73.91
2022-10-14T07:35:26.916Z,73.56
2022-10-14T07:37:55.668Z,73.50
2022-10-14T07:40:24.867Z,73.46
2022-10-14T07:42:52.929Z,73.30
2022-10-14T07:45:21.232Z,73.24
2022-10-14T07:47:51.272Z,72.52
2022-10-14T07:50:19.684Z,71.19
2022-10-14T07:52:47.824Z,71.25
2022-10-14T07:55:15.568Z,70.53
2022-10-14T07:57:44.657Z,69.43
2022-10-14T08:00:12.890Z,68.74
2022-10-14T08:02:41.072Z,70.34
2022-10-14T08:05:39.294Z,70.65
2022-10-14T08:07:57.707Z,71.17
2022-10-14T08:10:25.427Z,69.63
2022-10-14T08:12:54.816Z,68.84
2022-10-14T08:15:22.747Z,68.03
2022-10-14T08:17:50.966Z,68.24
2022-10-14T08:20:18.742Z,68.72
2022-10-14T08:22:47.725Z,67.15
2022-10-14T08:25:15.485Z,66.93
2022-10-14T08:27:43.550Z,64.82
2022-10-14T08:30:13.165Z,64.88
2022-10-14T08:32:41.299Z,65.05
2022-10-14T08:35:09.676Z,62.92
2022-10-14T08:37:38.209Z,62.01
2022-10-14T08:40:07.580Z,62.02
2022-10-14T08:42:41.301Z,62.21
2022-10-14T08:45:16.183Z,62.38
2022-10-14T08:47:46.915Z,60.28
2022-10-14T08:50:24.680Z,60.87
2022-10-14T08:52:58.359Z,59.53
2022-10-14T08:55:31.395Z,57.27
2022-10-14T08:58:06.306Z,57.63
2022-10-14T09:00:38.011Z,57.05
2022-10-14T09:03:16.338Z,56.19
2022-10-14T09:05:44.585Z,55.14
2022-10-14T09:08:17.035Z,54.55
2022-10-14T09:10:45.376Z,54.47
2022-10-14T09:13:18.686Z,55.04
2022-10-14T09:15:51.322Z,54.91
2022-10-14T09:18:27.967Z,55.49
2022-10-14T09:20:57.276Z,54.57
2022-10-14T09:25:58.714Z,52.81
2022-10-14T09:28:34.673Z,53.97
2022-10-14T09:31:04.184Z,51.75
2022-10-14T09:33:37.114Z,52.54
2022-10-14T09:36:13.461Z,51.52
2022-10-14T09:38:42.187Z,50.80
2022-10-14T09:41:15.721Z,50.18
2022-10-14T09:44:18.649Z,51.51
2022-10-14T09:46:58.531Z,51.04
2022-10-14T09:49:36.010Z,53.09
2022-10-14T09:52:03.770Z,55.00
2022-10-14T09:54:33.542Z,57.74
2022-10-14T09:57:04.934Z,57.76
2022-10-14T09:59:33.804Z,57.09
2022-10-14T10:02:05.389Z,57.33
2022-10-14T10:04:36.973Z,58.42
2022-10-14T10:07:07.013Z,56.38
2022-10-14T10:09:35.621Z,57.23
2022-10-14T10:12:24.195Z,56.41
2022-10-14T10:14:58.126Z,57.00
2022-10-14T10:17:28.273Z,57.99
2022-10-14T10:20:09.599Z,58.24
2022-10-14T10:22:38.923Z,56.82
2022-10-14T10:25:20.277Z,57.25
2022-10-14T10:27:50.666Z,56.85
2022-10-14T10:30:24.385Z,58.02
2022-10-14T10:33:18.423Z,54.38
2022-10-14T10:36:02.231Z,55.87
2022-10-14T10:38:35.060Z,57.90
2022-10-14T10:41:17.914Z,57.30
2022-10-14T10:44:12.312Z,58.52
2022-10-14T10:46:54.991Z,58.54
2022-10-14T10:49:38.782Z,58.42
2022-10-14T10:52:17.430Z,59.98
2022-10-14T10:54:56.452Z,62.40
2022-10-14T10:57:43.274Z,61.52
2022-10-14T11:00:16.527Z,62.18
2022-10-14T11:02:56.089Z,63.95
2022-10-14T11:05:44.050Z,63.31
2022-10-14T11:08:42.687Z,65.28
2022-10-14T11:11:39.814Z,63.91
2022-10-14T11:14:17.978Z,63.26
2022-10-14T11:16:53.252Z,63.36
2022-10-14T11:19:28.004Z,64.26
2022-10-14T11:22:06.910Z,63.74
2022-10-14T11:24:44.342Z,65.04
2022-10-14T11:27:20.962Z,65.04
2022-10-14T11:30:16.553Z,64.16
2022-10-14T11:33:00.076Z,64.49
2022-10-14T11:35:38.025Z,65.46
2022-10-14T11:38:25.214Z,66.36
2022-10-14T11:41:02.525Z,66.28
2022-10-14T11:43:40.721Z,66.24
2022-10-14T11:46:11.908Z,65.88
2022-10-14T11:48:45.302Z,66.11
2022-10-14T11:51:18.347Z,65.66
2022-10-14T11:53:58.407Z,65.75
2022-10-14T11:56:44.019Z,65.50
2022-10-14T11:59:32.034Z,65.33
2022-10-14T12:02:15.645Z,64.98
2022-10-14T12:04:47.462Z,65.69
2022-10-14T12:07:19.884Z,65.56
2022-10-14T12:09:57.384Z,64.68
2022-10-14T12:12:29.879Z,65.75
2022-10-14T12:15:01.187Z,65.24
2022-10-14T12:17:34.429Z,65.52
2022-10-14T12:20:09.801Z,65.11
2022-10-14T12:22:40.090Z,66.96
2022-10-14T12:25:17.582Z,66.79
2022-10-14T12:27:45.838Z,67.57
2022-10-14T12:30:35.065Z,67.58
2022-10-14T12:33:05.472Z,69.18
2022-10-14T12:36:00.987Z,70.64
2022-10-14T12:38:30.801Z,70.49
2022-10-14T12:41:32.213Z,70.93
2022-10-14T12:44:04.454Z,71.62
2022-10-14T12:46:32.580Z,70.28
2022-10-14T12:49:00.778Z,70.02
2022-10-14T12:51:28.530Z,69.75
2022-10-14T12:54:07.382Z,71.29
2022-10-14T12:56:39.838Z,72.41
2022-10-14T12:59:23.382Z,71.87
2022-10-14T13:01:56.995Z,71.25
2022-10-14T13:04:25.264Z,70.93
2022-10-14T13:07:47.186Z,71.15
2022-10-14T13:10:47.289Z,70.65
2022-10-14T13:13:52.290Z,70.96
2022-10-14T13:17:06.129Z,71.47
2022-10-14T13:19:44.942Z,71.28
2022-10-14T13:22:43.595Z,71.71
2022-10-14T13:25:18.154Z,72.57
2022-10-14T13:28:12.423Z,72.87
2022-10-14T13:31:05.685Z,72.76
2022-10-14T13:33:41.737Z,73.74
2022-10-14T13:36:17.841Z,73.44
2022-10-14T13:38:53.507Z,74.44
2022-10-14T13:41:30.576Z,74.34
2022-10-14T13:44:01.320Z,75.02
2022-10-14T13:46:33.211Z,74.71
2022-10-14T13:49:09.784Z,74.91
2022-10-14T13:51:45.805Z,75.24
2022-10-14T13:54:22.318Z,76.46
2022-10-14T13:57:38.124Z,75.75
2022-10-14T14:02:41.026Z,75.54
2022-10-14T14:05:17.198Z,75.60
2022-10-14T14:10:42.599Z,74.87
2022-10-14T14:13:19.872Z,75.07
2022-10-14T14:15:51.821Z,74.49
2022-10-14T14:18:49.133Z,74.82
2022-10-14T14:21:25.353Z,75.10
2022-10-14T14:23:56.499Z,74.82
2022-10-14T14:26:29.038Z,74.21
2022-10-14T14:28:56.910Z,73.96
2022-10-14T14:31:33.636Z,73.96
2022-10-14T14:34:18.046Z,74.60
2022-10-14T14:36:51.243Z,74.18
2022-10-14T14:39:27.562Z,74.49
2022-10-14T14:41:57.725Z,74.97
2022-10-14T14:44:28.187Z,74.81
2022-10-14T14:46:59.067Z,74.99
2022-10-14T14:49:29.289Z,74.50
2022-10-14T14:52:00.299Z,73.77
2022-10-14T14:54:30.250Z,73.84
2022-10-14T14:57:04.851Z,73.86
2022-10-14T14:59:36.772Z,74.09
2022-10-14T15:02:11.538Z,74.21
2022-10-14T15:04:39.682Z,73.36
2022-10-14T15:07:17.454Z,73.47
2022-10-14T15:09:52.566Z,74.14
2022-10-14T15:12:23.277Z,74.23
2022-10-14T15:14:53.842Z,74.32
2022-10-14T15:17:27.044Z,74.50
2022-10-14T15:19:57.060Z,73.49
2022-10-14T15:22:33.513Z,73.54
2022-10-14T15:25:09.687Z,73.91
2022-10-14T15:27:46.730Z,74.31
2022-10-14T15:30:31.694Z,73.95
2022-10-14T15:33:01.296Z,73.55
2022-10-14T15:35:30.587Z,74.23
2022-10-14T15:37:58.373Z,73.87
2022-10-14T15:40:30.810Z,73.96
2022-10-14T15:42:59.501Z,73.76
2022-10-14T15:45:27.457Z,73.41
2022-10-14T15:48:01.769Z,73.69
2022-10-14T15:50:30.343Z,73.68
2022-10-14T15:52:57.982Z,73.58
2022-10-14T15:55:29.999Z,73.54
2022-10-14T15:57:59.410Z,73.85
2022-10-14T16:00:27.205Z,74.13
2022-10-14T16:02:58.482Z,74.25
2022-10-14T16:05:28.888Z,74.28
2022-10-14T16:07:57.360Z,74.61
2022-10-14T16:10:29.333Z,74.91
2022-10-14T16:13:01.680Z,75.05
2022-10-14T16:15:36.573Z,75.34
2022-10-14T16:18:04.835Z,75.46
2022-10-14T16:20:32.960Z,75.18
2022-10-14T16:23:01.278Z,74.75
2022-10-14T16:25:32.853Z,74.67
2022-10-14T16:28:07.604Z,75.10
2022-10-14T16:30:38.639Z,74.54
2022-10-14T16:33:07.504Z,74.42
2022-10-14T16:35:35.209Z,74.45
2022-10-14T16:38:03.524Z,75.12
2022-10-14T16:40:35.826Z,74.60
2022-10-14T16:43:07.788Z,74.94
2022-10-14T16:45:35.416Z,75.40
2022-10-14T16:48:03.324Z,75.75
2022-10-14T16:50:30.959Z,75.54
2022-10-14T16:53:16.923Z,75.84
2022-10-14T16:55:44.578Z,75.88
2022-10-14T16:58:13.933Z,75.51
2022-10-14T17:00:42.087Z,75.58
2022-10-14T17:03:12.355Z,75.91
2022-10-14T17:05:40.023Z,76.24
2022-10-14T17:08:09.226Z,75.91
2022-10-14T17:10:38.860Z,76.20
2022-10-14T17:13:06.850Z,76.08
2022-10-14T17:15:38.497Z,76.25
2022-10-14T17:18:08.942Z,76.28
2022-10-14T17:20:39.743Z,76.28
2022-10-14T17:23:10.384Z,77.84
2022-10-14T17:25:40.832Z,77.66
2022-10-14T17:28:09.908Z,77.53
2022-10-14T17:30:39.063Z,78.09
2022-10-14T17:33:07.048Z,78.41
2022-10-14T17:35:34.727Z,78.36
2022-10-14T17:38:02.369Z,78.44
2022-10-14T17:40:33.956Z,78.31
2022-10-14T17:43:01.860Z,78.21
2022-10-14T17:45:31.356Z,78.62
2022-10-14T17:48:00.347Z,78.47
2022-10-14T17:50:28.515Z,79.19
2022-10-14T17:52:58.748Z,79.04
2022-10-14T17:55:26.817Z,78.59
2022-10-14T17:57:54.546Z,79.76
2022-10-14T18:00:22.867Z,79.93
2022-10-14T18:02:50.570Z,80.26
2022-10-14T18:05:20.510Z,80.46
2022-10-14T18:07:48.148Z,80.64
2022-10-14T18:10:16.034Z,79.96
2022-10-14T18:12:43.943Z,79.93
2022-10-14T18:15:11.866Z,79.73
2022-10-14T18:17:39.511Z,79.77
2022-10-14T18:20:07.999Z,80.10
2022-10-14T18:22:37.093Z,79.77
2022-10-14T18:25:06.681Z,79.54
2022-10-14T18:27:34.364Z,79.29
2022-10-14T18:30:02.329Z,79.24
2022-10-14T18:32:29.999Z,78.50
2022-10-14T18:34:57.650Z,78.21
2022-10-14T18:37:25.390Z,78.02
2022-10-14T18:39:55.065Z,77.80
2022-10-14T18:42:23.069Z,78.11
2022-10-14T18:44:51.418Z,77.88
2022-10-14T18:47:19.176Z,78.04
2022-10-14T18:49:48.702Z,77.55
2022-10-14T18:52:18.783Z,77.62
2022-10-14T18:54:47.168Z,77.08
2022-10-14T18:57:17.265Z,77.09
2022-10-14T18:59:45.200Z,77.50
2022-10-14T19:02:14.859Z,76.80
2022-10-14T19:04:42.649Z,77.19
2022-10-14T19:07:10.398Z,77.21
2022-10-14T19:09:38.578Z,76.80
2022-10-14T19:12:26.688Z,76.88
2022-10-14T19:14:56.028Z,76.82
2022-10-14T19:17:23.676Z,76.35
2022-10-14T19:19:52.079Z,76.71
2022-10-14T19:22:20.115Z,77.23
2022-10-14T19:24:48.026Z,77.39
2022-10-14T19:27:15.729Z,76.73
2022-10-14T19:29:43.704Z,77.21
2022-10-14T19:32:12.778Z,76.99
2022-10-14T19:34:44.853Z,77.23
2022-10-14T19:37:14.790Z,77.03
2022-10-14T19:39:43.089Z,76.38
2022-10-14T19:42:10.718Z,76.30
2022-10-14T19:44:38.384Z,75.98
2022-10-14T19:47:06.123Z,75.85
2022-10-14T19:49:35.519Z,76.31
2022-10-14T19:52:03.164Z,76.46
2022-10-14T19:54:31.195Z,76.65
2022-10-14T19:56:58.825Z,76.91
2022-10-14T19:59:26.887Z,77.09
2022-10-14T20:01:54.625Z,77.17
2022-10-14T20:04:25.212Z,77.02
2022-10-14T20:06:56.628Z,76.98
2022-10-14T20:09:24.549Z,76.64
2022-10-14T20:11:52.994Z,76.12
2022-10-14T20:14:20.898Z,75.93
2022-10-14T20:16:53.547Z,75.70
2022-10-14T20:19:23.710Z,75.76
2022-10-14T20:21:51.701Z,75.60
2022-10-14T20:24:20.727Z,76.03
2022-10-14T20:26:48.727Z,75.83
2022-10-14T20:29:16.633Z,75.37
2022-10-14T20:31:44.675Z,75.41
2022-10-14T20:34:12.343Z,75.10
2022-10-14T20:36:40.354Z,74.97
2022-10-14T20:39:07.981Z,74.97
2022-10-14T20:41:37.117Z,75.38
2022-10-14T20:44:05.033Z,75.41
2022-10-14T20:46:32.923Z,75.47
2022-10-14T20:49:00.732Z,75.37
2022-10-14T20:51:28.770Z,75.43
2022-10-14T20:54:01.808Z,75.74
2022-10-14T20:56:33.871Z,76.68
2022-10-14T20:59:04.511Z,75.86
2022-10-14T21:01:35.859Z,76.08
2022-10-14T21:04:05.025Z,76.31
2022-10-14T21:06:33.310Z,76.52
2022-10-14T21:09:01.585Z,76.53
2022-10-14T21:11:29.931Z,77.69
2022-10-14T21:13:59.806Z,78.11
2022-10-14T21:16:30.998Z,78.35
2022-10-14T21:19:01.707Z,78.70
2022-10-14T21:21:34.069Z,79.54
2022-10-14T21:24:01.713Z,78.93
2022-10-14T21:26:30.518Z,80.19
2022-10-14T21:28:58.255Z,80.93
2022-10-14T21:31:28.125Z,81.21
2022-10-14T21:34:01.160Z,80.60
2022-10-14T21:36:30.799Z,81.42
2022-10-14T21:39:00.683Z,82.26
2022-10-14T21:41:28.982Z,81.83
2022-10-14T21:43:58.791Z,81.87
2022-10-14T21:46:28.769Z,82.56
2022-10-14T21:48:57.766Z,82.35
2022-10-14T21:51:27.756Z,82.50
2022-10-14T21:53:55.966Z,83.16
2022-10-14T21:56:25.254Z,82.82
2022-10-14T21:58:53.187Z,82.61
2022-10-14T22:01:23.480Z,83.20
2022-10-14T22:03:56.126Z,83.80
2022-10-14T22:06:24.655Z,83.01
2022-10-14T22:08:55.172Z,83.37
2022-10-14T22:11:26.726Z,83.84
2022-10-14T22:13:56.069Z,83.36
2022-10-14T22:16:24.415Z,82.88
2022-10-14T22:18:54.526Z,82.99
2022-10-14T22:21:24.918Z,84.26
2022-10-14T22:23:53.034Z,83.79
2022-10-14T22:26:24.014Z,84.36
2022-10-14T22:28:58.574Z,83.43
2022-10-14T22:31:27.884Z,83.45
2022-10-14T22:33:56.976Z,82.84
2022-10-14T22:36:28.470Z,82.72
2022-10-14T22:38:56.947Z,83.68
2022-10-14T22:41:27.910Z,83.72
2022-10-14T22:43:59.701Z,83.15
2022-10-14T22:46:29.573Z,82.66
2022-10-14T22:49:00.754Z,81.92
2022-10-14T22:51:31.340Z,82.78
2022-10-14T22:53:59.629Z,82.72
2022-10-14T22:56:30.154Z,82.24
2022-10-14T22:58:59.313Z,82.64
2022-10-14T23:01:28.531Z,82.41
2022-10-14T23:03:58.293Z,81.45
2022-10-14T23:06:27.510Z,81.56
2022-10-14T23:08:55.326Z,81.87
2022-10-14T23:11:25.846Z,82.49
2022-10-14T23:13:54.378Z,82.37
2022-10-14T23:16:24.251Z,82.05
2022-10-14T23:18:52.850Z,82.03
2022-10-14T23:21:24.685Z,82.87
2022-10-14T23:23:53.810Z,82.30
2022-10-14T23:26:23.578Z,82.03
2022-10-14T23:28:52.974Z,81.81
2022-10-14T23:31:23.243Z,81.44
2022-10-14T23:33:52.708Z,81.61
2022-10-14T23:36:23.285Z,82.14
2022-10-14T23:38:52.899Z,81.67
2022-10-14T23:41:22.593Z,81.76
2022-10-14T23:43:52.028Z,82.54
2022-10-14T23:46:20.853Z,81.81
2022-10-14T23:48:55.924Z,82.32
2022-10-14T23:51:36.704Z,81.84
2022-10-14T23:54:05.626Z,81.91
2022-10-14T23:56:33.295Z,82.94
2022-10-14T23:59:01.234Z,83.35
